createdAt,value
2023-11-30T00:00:51.406Z,-1.64
2023-11-30T00:04:02.656Z,-1.67
2023-11-30T00:07:13.812Z,-1.69
2023-11-30T00:10:33.326Z,-1.72
2023-11-30T00:14:03.229Z,-1.75
2023-11-30T00:17:04.923Z,-1.76
2023-11-30T00:20:19.227Z,-1.76
2023-11-30T00:23:39.903Z,-1.78
2023-11-30T00:27:13.657Z,-1.80
2023-11-30T00:30:20.108Z,-1.81
2023-11-30T00:33:36.578Z,-1.81
2023-11-30T00:37:00.466Z,-1.80
2023-11-30T00:40:42.845Z,-1.82
2023-11-30T00:44:24.676Z,-1.87
2023-11-30T00:48:08.056Z,-1.87
2023-11-30T00:51:22.137Z,-1.87
2023-11-30T00:54:58.598Z,-1.87
2023-11-30T00:58:29.544Z,-1.85
2023-11-30T01:02:02.720Z,-1.83
2023-11-30T01:05:51.797Z,-1.85
2023-11-30T01:09:32.759Z,-1.82
2023-11-30T01:12:44.179Z,-1.83
2023-11-30T01:15:41.460Z,-1.86
2023-11-30T01:18:19.380Z,-1.88
2023-11-30T01:20:58.422Z,-1.88
2023-11-30T01:23:41.764Z,-1.87
2023-11-30T01:26:30.100Z,-1.87
2023-11-30T01:29:12.827Z,-1.88
2023-11-30T01:31:50.438Z,-1.88
2023-11-30T01:34:47.468Z,-1.88
2023-11-30T01:38:17.587Z,-1.87
2023-11-30T01:41:37.412Z,-1.88
2023-11-30T01:44:28.438Z,-1.91
2023-11-30T01:48:06.684Z,-1.93
2023-11-30T01:51:08.470Z,-1.94
2023-11-30T01:54:36.587Z,-1.96
2023-11-30T01:57:32.073Z,-2.00
2023-11-30T02:00:41.470Z,-2.03
2023-11-30T02:03:37.955Z,-2.07
2023-11-30T02:06:40.438Z,-2.12
2023-11-30T02:09:32.916Z,-2.15
2023-11-30T02:12:35.632Z,-2.15
2023-11-30T02:15:41.159Z,-2.15
2023-11-30T02:18:49.796Z,-2.13
2023-11-30T02:22:04.272Z,-2.12
2023-11-30T02:24:48.383Z,-2.11
2023-11-30T02:27:46.310Z,-2.10
2023-11-30T02:30:15.234Z,-2.10
2023-11-30T02:33:09.514Z,-2.11
2023-11-30T02:36:08.912Z,-2.10
2023-11-30T02:39:07.296Z,-2.12
2023-11-30T02:42:07.666Z,-2.13
2023-11-30T02:45:05.539Z,-2.15
2023-11-30T02:48:03.778Z,-2.18
2023-11-30T02:50:35.294Z,-2.20
2023-11-30T02:53:04.303Z,-2.17
2023-11-30T02:55:38.805Z,-2.13
2023-11-30T02:59:16.233Z,-2.10
2023-11-30T03:02:28.092Z,-2.10
2023-11-30T03:05:47.583Z,-2.10
2023-11-30T03:08:50.236Z,-2.11
2023-11-30T03:11:25.039Z,-2.12
2023-11-30T03:14:23.899Z,-2.11
2023-11-30T03:17:07.564Z,-2.15
2023-11-30T03:20:17.842Z,-2.18
2023-11-30T03:23:35.432Z,-2.21
2023-11-30T03:26:49.914Z,-2.22
2023-11-30T03:29:49.348Z,-2.23
2023-11-30T03:32:49.037Z,-2.23
2023-11-30T03:35:55.254Z,-2.24
2023-11-30T03:39:44.993Z,-2.23
2023-11-30T03:42:40.573Z,-2.25
2023-11-30T03:45:43.774Z,-2.25
2023-11-30T03:48:37.248Z,-2.27
2023-11-30T03:51:31.632Z,-2.25
2023-11-30T03:54:45.083Z,-2.27
2023-11-30T03:58:06.422Z,-2.31
2023-11-30T04:01:00.905Z,-2.35
2023-11-30T04:04:27.324Z,-2.38
2023-11-30T04:07:49.472Z,-2.42
2023-11-30T04:11:05.626Z,-2.47
2023-11-30T04:14:07.304Z,-2.50
2023-11-30T04:17:28.244Z,-2.53
2023-11-30T04:20:43.770Z,-2.56
2023-11-30T04:23:47.130Z,-2.56
2023-11-30T04:26:52.714Z,-2.58
2023-11-30T04:29:45.123Z,-2.57
2023-11-30T04:33:05.364Z,-2.56
2023-11-30T04:35:54.130Z,-2.55
2023-11-30T04:39:21.575Z,-2.55
2023-11-30T04:42:50.478Z,-2.56
2023-11-30T04:46:28.328Z,-2.57
2023-11-30T04:49:21.766Z,-2.57
2023-11-30T04:52:04.248Z,-2.59
2023-11-30T04:54:52.830Z,-2.59
2023-11-30T04:57:59.784Z,-2.63
2023-11-30T05:00:52.530Z,-2.64
2023-11-30T05:03:41.479Z,-2.65
2023-11-30T05:06:31.307Z,-2.66
2023-11-30T05:09:13.065Z,-2.66
2023-11-30T05:12:05.619Z,-2.67
2023-11-30T05:14:37.672Z,-2.67
2023-11-30T05:17:17.925Z,-2.65
2023-11-30T05:20:04.642Z,-2.65
2023-11-30T05:22:52.110Z,-2.64
2023-11-30T05:25:44.816Z,-2.63
2023-11-30T05:28:35.731Z,-2.64
2023-11-30T05:31:09.167Z,-2.64
2023-11-30T05:33:45.613Z,-2.63
2023-11-30T05:36:14.701Z,-2.62
2023-11-30T05:39:09.016Z,-2.63
2023-11-30T05:42:18.314Z,-2.65
2023-11-30T05:45:24.071Z,-2.67
2023-11-30T05:48:34.098Z,-2.68
2023-11-30T05:51:34.833Z,-2.68
2023-11-30T05:55:01.967Z,-2.66
2023-11-30T05:58:23.264Z,-2.67
2023-11-30T06:01:26.781Z,-2.66
2023-11-30T06:04:27.834Z,-2.66
2023-11-30T06:07:34.911Z,-2.66
2023-11-30T06:10:33.159Z,-2.64
2023-11-30T06:13:09.082Z,-2.62
2023-11-30T06:16:09.082Z,-2.60
2023-11-30T06:19:05.948Z,-2.58
2023-11-30T06:22:15.694Z,-2.57
2023-11-30T06:25:37.290Z,-2.57
2023-11-30T06:29:17.664Z,-2.56
2023-11-30T06:32:49.584Z,-2.55
2023-11-30T06:36:13.512Z,-2.56
2023-11-30T06:39:28.148Z,-2.54
2023-11-30T06:42:45.318Z,-2.54
2023-11-30T06:45:45.750Z,-2.52
2023-11-30T06:48:26.799Z,-2.50
2023-11-30T06:51:40.829Z,-2.49
2023-11-30T06:55:03.420Z,-2.45
2023-11-30T06:58:08.201Z,-2.44
2023-11-30T07:01:27.131Z,-2.44
2023-11-30T07:04:42.759Z,-2.44
2023-11-30T07:07:37.898Z,-2.43
2023-11-30T07:10:52.617Z,-2.44
2023-11-30T07:14:04.888Z,-2.44
2023-11-30T07:17:01.068Z,-2.42
2023-11-30T07:20:03.117Z,-2.41
2023-11-30T07:22:48.095Z,-2.41
2023-11-30T07:25:47.649Z,-2.41
2023-11-30T07:28:57.276Z,-2.42
2023-11-30T07:32:05.650Z,-2.40
2023-11-30T07:35:22.661Z,-2.40
2023-11-30T07:38:10.974Z,-2.41
2023-11-30T07:41:18.084Z,-2.38
2023-11-30T07:44:04.724Z,-2.36
2023-11-30T07:46:49.220Z,-2.32
2023-11-30T07:50:07.972Z,-2.31
2023-11-30T07:52:56.077Z,-2.32
2023-11-30T07:56:11.710Z,-2.31
2023-11-30T07:59:18.277Z,-2.31
2023-11-30T08:02:05.543Z,-2.32
2023-11-30T08:04:55.037Z,-2.31
2023-11-30T08:07:33.290Z,-2.30
2023-11-30T08:10:18.295Z,-2.27
2023-11-30T08:13:02.333Z,-2.25
2023-11-30T08:15:45.940Z,-2.24
2023-11-30T08:19:08.810Z,-2.21
2023-11-30T08:21:48.424Z,-2.19
2023-11-30T08:24:58.352Z,-2.18
2023-11-30T08:28:23.124Z,-2.17
2023-11-30T08:31:47.509Z,-2.17
2023-11-30T08:35:00.030Z,-2.16
2023-11-30T08:38:31.468Z,-2.17
2023-11-30T08:41:37.470Z,-2.18
2023-11-30T08:44:46.040Z,-2.18
2023-11-30T08:47:51.157Z,-2.16
2023-11-30T08:51:20.977Z,-2.14
2023-11-30T08:54:55.722Z,-2.10
2023-11-30T08:57:55.329Z,-2.05
2023-11-30T09:01:40.056Z,-2.02
2023-11-30T09:04:39.492Z,-2.02
2023-11-30T09:08:20.499Z,-1.99
2023-11-30T09:11:27.046Z,-1.96
2023-11-30T09:14:35.320Z,-1.92
2023-11-30T09:17:52.893Z,-1.86
2023-11-30T09:20:58.069Z,-1.80
2023-11-30T09:24:16.484Z,-1.73
2023-11-30T09:27:17.720Z,-1.66
2023-11-30T09:30:03.475Z,-1.60
2023-11-30T09:33:08.426Z,-1.57
2023-11-30T09:36:03.901Z,-1.52
2023-11-30T09:38:53.453Z,-1.48
2023-11-30T09:41:45.387Z,-1.45
2023-11-30T09:44:48.614Z,-1.39
2023-11-30T09:47:49.759Z,-1.33
2023-11-30T09:50:55.982Z,-1.29
2023-11-30T09:54:37.200Z,-1.28
2023-11-30T09:58:11.958Z,-1.25
2023-11-30T10:01:30.428Z,-1.22
2023-11-30T10:04:30.780Z,-1.19
2023-11-30T10:07:55.744Z,-1.18
2023-11-30T10:11:52.397Z,-1.20
2023-11-30T10:14:54.383Z,-1.20
2023-11-30T10:17:58.134Z,-1.19
2023-11-30T10:21:10.447Z,-1.18
2023-11-30T10:24:40.052Z,-1.20
2023-11-30T10:28:11.951Z,-1.20
2023-11-30T10:31:04.105Z,-1.18
2023-11-30T10:34:11.639Z,-1.15
2023-11-30T10:37:39.208Z,-1.12
2023-11-30T10:40:43.624Z,-1.11
2023-11-30T10:44:15.248Z,-1.10
2023-11-30T10:47:16.720Z,-1.07
2023-11-30T10:50:33.538Z,-1.06
2023-11-30T10:54:06.944Z,-1.09
2023-11-30T10:56:54.518Z,-1.09
2023-11-30T10:59:35.646Z,-1.09
2023-11-30T11:02:20.783Z,-1.09
2023-11-30T11:04:58.134Z,-1.08
2023-11-30T11:07:36.294Z,-1.11
2023-11-30T11:10:22.842Z,-1.14
2023-11-30T11:13:13.008Z,-1.15
2023-11-30T11:16:07.868Z,-1.18
2023-11-30T11:19:23.114Z,-1.19
2023-11-30T11:22:41.392Z,-1.16
2023-11-30T11:26:10.655Z,-1.12
2023-11-30T11:29:13.723Z,-1.07
2023-11-30T11:32:20.718Z,-1.04
2023-11-30T11:35:30.015Z,-1.02
2023-11-30T11:38:06.705Z,-1.00
2023-11-30T11:40:40.390Z,-0.98
2023-11-30T11:43:15.226Z,-0.98
2023-11-30T11:46:03.478Z,-0.96
2023-11-30T11:48:37.778Z,-0.94
2023-11-30T11:51:14.608Z,-0.90
2023-11-30T11:53:52.295Z,-0.88
2023-11-30T11:56:41.435Z,-0.87
2023-11-30T11:59:40.042Z,-0.84
2023-11-30T12:02:53.837Z,-0.80
2023-11-30T12:05:57.960Z,-0.78
2023-11-30T12:08:36.615Z,-0.73
2023-11-30T12:11:31.085Z,-0.68
2023-11-30T12:14:31.988Z,-0.63
2023-11-30T12:17:11.974Z,-0.59
2023-11-30T12:20:02.933Z,-0.53
2023-11-30T12:22:40.001Z,-0.45
2023-11-30T12:25:12.914Z,-0.43
2023-11-30T12:27:42.216Z,-0.39
2023-11-30T12:30:19.305Z,-0.35
2023-11-30T12:33:00.725Z,-0.32
2023-11-30T12:35:40.702Z,-0.30
2023-11-30T12:38:32.064Z,-0.27
2023-11-30T12:41:37.420Z,-0.25
2023-11-30T12:44:18.048Z,-0.22
2023-11-30T12:46:56.340Z,-0.21
2023-11-30T12:49:39.525Z,-0.19
2023-11-30T12:52:11.926Z,-0.16
2023-11-30T12:54:52.738Z,-0.15
2023-11-30T12:57:22.334Z,-0.14
2023-11-30T12:59:51.021Z,-0.13
2023-11-30T13:02:25.004Z,-0.13
2023-11-30T13:05:03.498Z,-0.12
2023-11-30T13:07:32.581Z,-0.11
2023-11-30T13:10:02.024Z,-0.12
2023-11-30T13:12:31.804Z,-0.15
2023-11-30T13:15:05.401Z,-0.18
2023-11-30T13:17:39.633Z,-0.20
2023-11-30T13:20:16.149Z,-0.21
2023-11-30T13:22:51.147Z,-0.20
2023-11-30T13:25:49.007Z,-0.20
2023-11-30T13:28:21.046Z,-0.21
2023-11-30T13:31:02.963Z,-0.22
2023-11-30T13:33:32.427Z,-0.22
2023-11-30T13:36:03.773Z,-0.19
2023-11-30T13:38:38.037Z,-0.14
2023-11-30T13:41:14.030Z,-0.06
2023-11-30T13:43:57.628Z,0.02
2023-11-30T13:46:39.235Z,0.06
2023-11-30T13:49:14.913Z,0.09
2023-11-30T13:51:46.043Z,0.13
2023-11-30T13:54:15.958Z,0.13
2023-11-30T13:56:47.020Z,0.13
2023-11-30T13:59:22.161Z,0.14
2023-11-30T14:01:53.659Z,0.17
2023-11-30T14:04:22.366Z,0.18
2023-11-30T14:06:51.396Z,0.18
2023-11-30T14:09:29.354Z,0.17
2023-11-30T14:12:05.715Z,0.17
2023-11-30T14:14:37.385Z,0.15
2023-11-30T14:17:14.781Z,0.15
2023-11-30T14:19:49.798Z,0.15
2023-11-30T14:22:24.653Z,0.14
2023-11-30T14:24:54.162Z,0.12
2023-11-30T14:27:27.801Z,0.09
2023-11-30T14:29:57.336Z,0.05
2023-11-30T14:32:36.240Z,0.03
2023-11-30T14:35:07.859Z,-0.03
2023-11-30T14:37:37.049Z,-0.07
2023-11-30T14:40:09.874Z,-0.09
2023-11-30T14:42:47.506Z,-0.13
2023-11-30T14:45:19.527Z,-0.19
2023-11-30T14:47:53.165Z,-0.26
2023-11-30T14:50:22.459Z,-0.32
2023-11-30T14:52:54.994Z,-0.36
2023-11-30T14:55:33.780Z,-0.40
2023-11-30T14:58:07.897Z,-0.44
2023-11-30T15:00:45.129Z,-0.47
2023-11-30T15:05:48.696Z,-0.49
2023-11-30T15:08:23.823Z,-0.51
2023-11-30T15:10:58.846Z,-0.51
2023-11-30T15:13:36.096Z,-0.51
2023-11-30T15:16:08.891Z,-0.50
2023-11-30T15:18:53.971Z,-0.51
2023-11-30T15:21:29.640Z,-0.51
2023-11-30T15:24:01.812Z,-0.51
2023-11-30T15:26:48.962Z,-0.52
2023-11-30T15:29:20.308Z,-0.51
2023-11-30T15:31:58.272Z,-0.50
2023-11-30T15:34:34.792Z,-0.47
2023-11-30T15:37:36.548Z,-0.45
2023-11-30T15:40:22.311Z,-0.44
2023-11-30T15:43:04.981Z,-0.45
2023-11-30T15:45:52.336Z,-0.44
2023-11-30T15:48:41.012Z,-0.43
2023-11-30T15:51:19.891Z,-0.42
2023-11-30T15:54:00.634Z,-0.42
2023-11-30T15:56:44.967Z,-0.42
2023-11-30T15:59:17.358Z,-0.41
2023-11-30T16:02:11.844Z,-0.40
2023-11-30T16:04:48.657Z,-0.40
2023-11-30T16:07:53.514Z,-0.40
2023-11-30T16:10:40.826Z,-0.41
2023-11-30T16:13:34.326Z,-0.40
2023-11-30T16:16:11.086Z,-0.39
2023-11-30T16:19:02.650Z,-0.38
2023-11-30T16:22:04.130Z,-0.39
2023-11-30T16:24:55.528Z,-0.39
2023-11-30T16:28:16.481Z,-0.38
2023-11-30T16:31:14.385Z,-0.39
2023-11-30T16:34:10.815Z,-0.41
2023-11-30T16:37:23.128Z,-0.41
2023-11-30T16:40:08.423Z,-0.43
2023-11-30T16:43:12.053Z,-0.44
2023-11-30T16:46:13.469Z,-0.44
2023-11-30T16:48:58.762Z,-0.45
2023-11-30T16:52:04.877Z,-0.47
2023-11-30T16:54:48.198Z,-0.50
2023-11-30T16:57:35.239Z,-0.48
2023-11-30T17:00:10.839Z,-0.47
2023-11-30T17:02:54.786Z,-0.47
2023-11-30T17:05:59.275Z,-0.48
2023-11-30T17:09:05.511Z,-0.53
2023-11-30T17:12:03.739Z,-0.54
2023-11-30T17:14:59.382Z,-0.53
2023-11-30T17:17:58.413Z,-0.53
2023-11-30T17:20:47.604Z,-0.53
2023-11-30T17:23:28.433Z,-0.54
2023-11-30T17:26:23.173Z,-0.54
2023-11-30T17:29:01.290Z,-0.53
2023-11-30T17:31:47.747Z,-0.51
2023-11-30T17:34:30.821Z,-0.54
2023-11-30T17:37:17.644Z,-0.56
2023-11-30T17:40:19.539Z,-0.58
2023-11-30T17:42:51.188Z,-0.60
2023-11-30T17:45:54.932Z,-0.61
2023-11-30T19:24:24.229Z,0.44
2023-11-30T19:27:19.648Z,0.31
2023-11-30T19:30:06.558Z,0.16
2023-11-30T19:33:18.090Z,0.02
2023-11-30T19:36:01.865Z,-0.11
2023-11-30T19:39:30.059Z,-0.22
2023-11-30T19:42:38.940Z,-0.34
2023-11-30T19:45:32.440Z,-0.40
2023-11-30T19:48:45.354Z,-0.47
2023-11-30T19:51:40.100Z,-0.54
2023-11-30T19:54:33.489Z,-0.58
2023-11-30T19:57:35.953Z,-0.62
2023-11-30T20:00:14.259Z,-0.68
2023-11-30T20:02:54.997Z,-0.71
2023-11-30T20:05:40.854Z,-0.74
2023-11-30T20:08:23.844Z,-0.79
2023-11-30T20:10:56.275Z,-0.82
2023-11-30T20:13:47.967Z,-0.86
2023-11-30T20:17:00.843Z,-0.89
2023-11-30T20:19:51.314Z,-0.91
2023-11-30T20:23:11.152Z,-0.94
2023-11-30T20:26:19.931Z,-0.97
2023-11-30T20:29:06.767Z,-0.98
2023-11-30T20:32:13.000Z,-1.00
2023-11-30T20:35:32.740Z,-1.01
2023-11-30T20:38:52.007Z,-1.06
2023-11-30T20:41:48.934Z,-1.07
2023-11-30T20:44:31.155Z,-1.09
2023-11-30T20:47:34.587Z,-1.13
2023-11-30T20:50:39.389Z,-1.17
2023-11-30T20:53:15.874Z,-1.19
2023-11-30T20:56:05.816Z,-1.24
2023-11-30T20:59:05.295Z,-1.26
2023-11-30T21:05:20.249Z,-1.34
2023-11-30T21:08:41.173Z,-1.39
2023-11-30T21:11:34.361Z,-1.42
2023-11-30T21:14:28.189Z,-1.42
2023-11-30T21:17:38.052Z,-1.43
2023-11-30T21:21:04.804Z,-1.44
2023-11-30T21:24:39.459Z,-1.47
2023-11-30T21:27:33.165Z,-1.49
2023-11-30T21:30:28.340Z,-1.52
2023-11-30T21:33:18.485Z,-1.52
2023-11-30T21:36:02.687Z,-1.53
2023-11-30T21:38:46.740Z,-1.54
2023-11-30T21:41:48.613Z,-1.56
2023-11-30T21:44:38.749Z,-1.56
2023-11-30T21:47:29.670Z,-1.56
2023-11-30T21:50:45.673Z,-1.57
2023-11-30T21:53:38.517Z,-1.59
2023-11-30T21:56:24.414Z,-1.60
2023-11-30T21:59:10.876Z,-1.59
2023-11-30T22:01:43.049Z,-1.58
2023-11-30T22:04:50.859Z,-1.59
2023-11-30T22:07:48.613Z,-1.60
2023-11-30T22:10:54.464Z,-1.58
2023-11-30T22:14:11.473Z,-1.58
2023-11-30T22:17:25.311Z,-1.59
2023-11-30T22:20:36.388Z,-1.59
2023-11-30T22:23:35.855Z,-1.60
2023-11-30T22:26:28.960Z,-1.60
2023-11-30T22:29:54.894Z,-1.59
2023-11-30T22:32:53.863Z,-1.59
2023-11-30T22:35:34.251Z,-1.60
2023-11-30T22:38:46.389Z,-1.61
2023-11-30T22:42:08.067Z,-1.61
2023-11-30T22:45:05.688Z,-1.63
2023-11-30T22:48:01.058Z,-1.65
2023-11-30T22:50:33.334Z,-1.68
2023-11-30T22:53:43.343Z,-1.71
2023-11-30T22:57:21.183Z,-1.75
2023-11-30T23:00:56.970Z,-1.78
2023-11-30T23:03:46.740Z,-1.83
2023-11-30T23:07:02.337Z,-1.88
2023-11-30T23:10:21.451Z,-1.91
2023-11-30T23:12:56.034Z,-1.95
2023-11-30T23:15:44.175Z,-2.01
2023-11-30T23:18:38.454Z,-2.05
2023-11-30T23:21:38.780Z,-2.08
2023-11-30T23:24:39.677Z,-2.10
2023-11-30T23:27:22.087Z,-2.14
2023-11-30T23:30:31.042Z,-2.16
2023-11-30T23:33:39.882Z,-2.19
2023-11-30T23:36:28.831Z,-2.20
2023-11-30T23:39:17.124Z,-2.22
2023-11-30T23:41:58.550Z,-2.26
2023-11-30T23:45:12.031Z,-2.30
2023-11-30T23:48:10.109Z,-2.33
2023-11-30T23:51:00.658Z,-2.34
2023-11-30T23:53:57.176Z,-2.37
2023-11-30T23:56:33.490Z,-2.40
2023-11-30T23:59:24.465Z,-2.42
